Terminal Aerodrome Forecast
Issued by NWS

Home | Current Version | Previous Version | Text Only | Print | Product List | Glossary Off
Versions: 1 2 3 4 5 6 7 8 9 10 11 12 13 14 15 16 17 18 19 20 21 22 23 24 25 26 27 28 29 30 31 32 33
000 FTUS41 KBOX 300520 TAFBAF TAF KBAF 300520Z 3006/3106 18004KT P6SM FEW250 FM301200 20005KT P6SM BKN100 FM301500 20010KT P6SM SCT100 FM301800 20013G23KT P6SM SCT110 FM302100 20014G23KT P6SM BKN045 FM310300 20010KT P6SM BKN070=

USA.gov is the U.S. government's official web portal to all federal, state and local government web resources and services.